メインページ
METAR-TAF:

METAR-TAF

空港 :

リガ, ラトビア

リガ国際空港

緯度: 56-55N, 経度: 023-58E, 海抜: 10m

現時点の気象観測

当レポートは18分前の10:20(UTC)に作成
南/南西の風 9kt、から南西の間で変化する
気温 2°C
湿度 100%
気圧 998 hPa
視程10km以上
高度600ftの曇り

METAR: EVRA 191020Z 20009KT 170V230 9999 OVC006 02/02 Q0998 R18/290195 NOSIG

時間: 12:38 (10:38 UTC)

予報

当レポートは2時間32分前の08:06(UTC)に作成
予報は19日の 09時(UTC)から 20日の 09時(UTC)まで有効
の風 9kt
視程: 8000m
高度700ftの曇り
19日の 09時(UTC)から 19日の 11時(UTC)まで徐々に
高度1000ftの曇り
19日の 15時(UTC)から 19日の 23時(UTC)まで一時的に
視程: 4000m
高度500ftの千切れ雲あり
高度1500ftの雲は散在している, 積乱雲.
小雨, 靄
19日の 23時(UTC)から 19日の 24時(UTC)まで徐々に
高度1000ftの雲は散在している
高度1500ftの千切れ雲あり
20日の 00時(UTC)から 20日の 09時(UTC)まで一時的に
視程: 4000m
高度500ftの千切れ雲あり
高度1000ftの曇り

TAF: EVRA 190806Z 1909/2009 18009KT 8000 OVC007 BECMG 1909/1911 OVC010 TEMPO 1915/1923 4000 -RA BR BKN005 SCT015CB BECMG 1923/1924 SCT010 BKN015 TEMPO 2000/2009 4000 BR BKN005 OVC010

4,000以上の空港の気象観測と天気予報(METAR報とTAF報)

利用可能な観測所は地図上に黄色い丸と赤い丸で示す。

丸の上にカーソルを重ねると観測所名を参照できる。

次にクリックすると気象観測と天気予報を参照できる。

マップの切り替え:黒色「×」印の緑ボタンをクリックして拡大、「-」印の緑ボタンをクリックして縮小、緑色の三角印をクリックして隣りの地図に切り替え


METAR-TAF: